Time;durP1;ratioP1;P1;durP2;ratioP2;P2;SDS_P1;SDS_P2;PMS_P1;PMS_P2;Temp;Humidity;BMP_temperature;BMP_pressure;BME280_temperature;BME280_humidity;BME280_pressure;Samples;Min_cycle;Max_cycle;Signal;HPM_P1;HPM_P2
2023/01/27 00:00:13;;;;;;;;;4.25;3.00;;;;;5.79;70.97;101766.00;5014830;28;45441;-62
2023/01/27 00:02:42;;;;;;;;;6.60;5.60;;;;;5.82;70.54;101773.88;5015794;28;45388;-63
2023/01/27 00:05:08;;;;;;;;;4.80;4.80;;;;;5.75;70.34;101764.59;5015609;28;45523;-62
2023/01/27 00:07:34;;;;;;;;;4.40;4.40;;;;;5.59;69.68;101729.03;5008581;28;45374;-61
2023/01/27 00:09:59;;;;;;;;;8.00;5.00;;;;;5.80;70.66;101762.28;4996910;28;45339;-61
2023/01/27 00:15:10;;;;;;;;;4.60;2.00;;;;;5.78;69.67;101771.59;5009395;28;45445;-63
2023/01/27 00:17:36;;;;;;;;;8.80;5.00;;;;;5.79;69.46;101774.19;4996554;28;45301;-62
2023/01/27 00:20:02;;;;;;;;;6.75;5.75;;;;;5.74;69.96;101762.88;5029021;28;45714;-64
2023/01/27 00:25:11;;;;;;;;;9.00;5.00;;;;;5.78;69.75;101769.75;4996885;28;45727;-62
2023/01/27 00:27:37;;;;;;;;;12.00;7.75;;;;;5.76;70.31;101760.03;4996656;28;45347;-62
2023/01/27 00:30:04;;;;;;;;;6.75;6.75;;;;;5.81;69.90;101765.84;4996190;28;45416;-61
2023/01/27 00:35:17;;;;;;;;;6.40;6.40;;;;;5.74;70.46;101749.28;4996145;28;45346;-61
2023/01/27 00:37:45;;;;;;;;;7.80;5.60;;;;;5.82;70.42;101778.47;4995610;28;45502;-61
2023/01/27 00:40:11;;;;;;;;;6.00;6.00;;;;;5.75;70.66;101747.38;5027515;28;45431;-61
2023/01/27 00:42:37;;;;;;;;;5.00;5.00;;;;;5.86;70.90;101768.13;5011470;28;45394;-61
2023/01/27 00:47:47;;;;;;;;;6.60;5.40;;;;;5.75;70.87;101761.00;4995525;28;45770;-62
2023/01/27 00:50:14;;;;;;;;;1.75;1.75;;;;;5.49;71.14;101718.22;4995454;28;45333;-61
2023/01/27 00:52:39;;;;;;;;;4.00;2.40;;;;;5.77;71.16;101761.72;4996032;28;45408;-61
2023/01/27 00:55:06;;;;;;;;;7.25;2.50;;;;;5.74;70.37;101753.84;4995860;28;45318;-61
2023/01/27 00:57:32;;;;;;;;;2.40;2.00;;;;;5.77;70.94;101759.00;4995581;28;46792;-61
2023/01/27 00:59:57;;;;;;;;;7.25;5.00;;;;;5.76;70.64;101760.84;5046360;28;45312;-62
2023/01/27 01:02:23;;;;;;;;;4.50;2.00;;;;;5.68;70.15;101742.59;5015064;28;45510;-62
2023/01/27 01:04:48;;;;;;;;;4.00;3.75;;;;;5.77;70.00;101764.44;5014366;28;45418;-61
2023/01/27 01:07:14;;;;;;;;;4.50;4.25;;;;;5.78;69.63;101757.97;4994721;28;46402;-61
2023/01/27 01:09:39;;;;;;;;;9.50;5.25;;;;;5.80;69.93;101759.56;4990874;28;45709;-61
2023/01/27 01:12:05;;;;;;;;;7.25;2.00;;;;;5.79;70.23;101759.69;4992038;28;45381;-61
2023/01/27 01:14:30;;;;;;;;;5.00;3.25;;;;;5.74;70.11;101749.28;4995078;28;45535;-60
2023/01/27 01:16:56;;;;;;;;;3.50;2.00;;;;;5.76;70.36;101749.97;4995509;28;46499;-62
2023/01/27 01:19:21;;;;;;;;;2.25;2.25;;;;;5.77;69.89;101759.00;5026899;28;45468;-61
2023/01/27 01:21:47;;;;;;;;;4.00;4.00;;;;;5.78;70.09;101750.69;4994302;28;45336;-61
2023/01/27 01:24:12;;;;;;;;;4.25;4.25;;;;;5.81;70.17;101747.63;4995419;28;45571;-61
2023/01/27 01:26:38;;;;;;;;;8.50;5.00;;;;;5.80;70.26;101742.34;5026587;28;45544;-61
2023/01/27 01:29:03;;;;;;;;;6.00;4.50;;;;;5.82;70.49;101743.88;4994762;28;45318;-61
2023/01/27 01:31:29;;;;;;;;;5.25;4.25;;;;;5.80;69.45;101748.66;4995179;28;45318;-61
2023/01/27 01:33:55;;;;;;;;;1.00;1.00;;;;;5.80;70.36;101743.19;4995342;28;45553;-61
2023/01/27 01:36:21;;;;;;;;;4.50;2.75;;;;;5.85;70.93;101753.63;4995048;28;46567;-61
2023/01/27 01:38:46;;;;;;;;;4.25;1.50;;;;;5.84;69.93;101741.03;5026278;28;46059;-61
2023/01/27 01:41:17;;;;;;;;;3.25;2.00;;;;;5.84;69.99;101743.75;4995240;28;45413;-62
2023/01/27 01:43:42;;;;;;;;;2.20;1.80;;;;;5.79;70.66;101736.03;4994639;28;45523;-61
2023/01/27 01:46:09;;;;;;;;;3.50;3.50;;;;;5.83;69.88;101736.59;4993468;28;45796;-61
2023/01/27 01:48:43;;;;;;;;;4.80;1.80;;;;;5.80;70.07;101732.31;4995049;28;45267;-61
2023/01/27 01:51:20;;;;;;;;;2.00;1.60;;;;;5.84;69.84;101736.41;4994147;28;45294;-61
2023/01/27 01:53:59;;;;;;;;;3.40;2.00;;;;;5.81;70.47;101739.47;5026874;28;45809;-61
2023/01/27 01:56:47;;;;;;;;;2.00;2.00;;;;;5.83;70.04;101742.03;4995273;28;46193;-61
2023/01/27 01:59:38;;;;;;;;;5.00;4.80;;;;;5.71;70.04;101711.44;4998182;28;45422;-61
2023/01/27 02:02:06;;;;;;;;;2.00;2.00;;;;;5.79;69.18;101727.00;5029354;28;45454;-61
2023/01/27 02:04:34;;;;;;;;;2.80;1.60;;;;;5.64;69.75;101700.31;5013756;28;45397;-61
2023/01/27 02:07:38;;;;;;;;;3.80;3.80;;;;;5.81;69.85;101742.19;5004096;28;45648;-62
2023/01/27 02:10:04;;;;;;;;;5.80;4.40;;;;;5.81;69.35;101734.00;4990539;28;45407;-61
2023/01/27 02:12:29;;;;;;;;;6.00;3.25;;;;;5.79;69.66;101732.44;5042970;28;45384;-61
2023/01/27 02:14:55;;;;;;;;;7.75;5.25;;;;;5.75;69.99;101729.19;5006185;28;45337;-62
2023/01/27 02:17:21;;;;;;;;;1.50;1.50;;;;;5.78;70.01;101725.28;5026401;28;46255;-61
2023/01/27 02:20:01;;;;;;;;;3.50;3.50;;;;;5.76;70.26;101720.00;4994491;28;45443;-62
2023/01/27 02:22:48;;;;;;;;;3.40;2.60;;;;;5.76;70.14;101713.72;4995079;28;45362;-61
2023/01/27 02:25:33;;;;;;;;;5.00;5.00;;;;;5.75;69.74;101707.38;4994864;28;45566;-62
2023/01/27 02:27:59;;;;;;;;;8.40;3.80;;;;;5.76;69.77;101709.09;5009091;28;45653;-62
2023/01/27 02:30:24;;;;;;;;;7.20;5.00;;;;;5.77;70.39;101710.81;4994321;28;45365;-62
2023/01/27 02:32:50;;;;;;;;;7.00;5.75;;;;;5.76;70.07;101702.81;4994768;28;45326;-61
2023/01/27 02:35:19;;;;;;;;;5.75;5.75;;;;;5.76;69.73;101708.25;4994634;28;45682;-62
2023/01/27 02:37:45;;;;;;;;;8.00;5.80;;;;;5.59;69.72;101683.56;4994262;28;46598;-62
2023/01/27 02:40:10;;;;;;;;;4.80;3.80;;;;;5.64;69.76;101685.81;5026324;28;45419;-61
2023/01/27 02:42:36;;;;;;;;;4.50;4.50;;;;;5.52;68.57;101658.84;4993470;28;45559;-62
2023/01/27 02:45:01;;;;;;;;;2.75;2.75;;;;;5.47;68.97;101655.72;5010450;28;45558;-61
2023/01/27 02:47:27;;;;;;;;;3.50;2.50;;;;;5.68;68.78;101690.81;4993432;28;46064;-61
2023/01/27 02:49:53;;;;;;;;;4.00;4.00;;;;;5.76;69.09;101700.91;4993210;28;45399;-61
2023/01/27 02:52:19;;;;;;;;;5.75;2.50;;;;;5.54;68.78;101651.38;4993897;28;45356;-61
2023/01/27 02:54:44;;;;;;;;;2.80;2.80;;;;;5.78;68.84;101707.09;4995553;28;45259;-61
2023/01/27 02:57:10;;;;;;;;;5.00;2.00;;;;;5.77;69.01;101702.63;4995936;28;46755;-61
2023/01/27 02:59:35;;;;;;;;;9.75;4.00;;;;;5.72;67.93;101696.81;5008525;28;45383;-61
2023/01/27 03:02:01;;;;;;;;;3.00;3.00;;;;;5.72;68.80;101698.69;5032703;28;45421;-61
2023/01/27 03:04:26;;;;;;;;;2.00;2.00;;;;;5.75;67.98;101688.31;5003313;28;45448;-63
2023/01/27 03:06:52;;;;;;;;;6.00;3.25;;;;;5.72;68.24;101702.25;5012417;28;45679;-61
2023/01/27 03:09:18;;;;;;;;;3.25;3.00;;;;;5.73;67.29;101703.09;5016855;28;45295;-62
2023/01/27 03:19:55;;;;;;;;;4.20;1.00;;;;;5.84;67.53;101690.09;4997204;28;45359;-61
2023/01/27 03:22:21;;;;;;;;;4.00;1.50;;;;;5.85;68.35;101685.50;4997228;28;45464;-61
2023/01/27 03:24:46;;;;;;;;;3.75;3.75;;;;;5.87;68.43;101686.19;4995577;28;45356;-61
2023/01/27 03:27:12;;;;;;;;;5.00;2.25;;;;;5.90;68.45;101687.75;4995711;28;45375;-61
2023/01/27 03:29:56;;;;;;;;;1.25;1.25;;;;;5.78;68.74;101685.28;4996738;28;45384;-61
2023/01/27 03:32:23;;;;;;;;;2.80;1.60;;;;;5.89;67.69;101702.41;4995635;28;45434;-61
2023/01/27 03:34:49;;;;;;;;;3.80;3.80;;;;;5.84;68.04;101700.97;4996960;28;45533;-61
2023/01/27 03:48:16;;;;;;;;;4.60;2.80;;;;;5.75;67.57;101695.63;4996540;28;45314;-61
2023/01/27 03:50:42;;;;;;;;;2.20;2.20;;;;;5.75;67.62;101701.94;4995953;28;45407;-62
2023/01/27 03:53:10;;;;;;;;;3.80;2.60;;;;;5.71;68.40;101692.34;4996943;28;45375;-61
2023/01/27 03:55:36;;;;;;;;;5.00;4.60;;;;;5.55;68.72;101666.69;4996635;28;45467;-61
2023/01/27 03:58:17;;;;;;;;;2.50;2.50;;;;;5.76;68.59;101700.09;4999761;28;45417;-61
2023/01/27 04:00:43;;;;;;;;;4.00;2.00;;;;;5.18;69.25;101602.34;5043651;28;45350;-61
2023/01/27 04:08:37;;;;;;;;;2.20;2.20;;;;;5.78;69.41;101706.22;4995931;28;45275;-61
2023/01/27 04:13:47;;;;;;;;;1.60;1.60;;;;;5.82;68.55;101700.28;5023205;28;45406;-62
2023/01/27 04:16:13;;;;;;;;;4.25;2.00;;;;;5.76;68.95;101692.75;5011370;28;45628;-60
2023/01/27 04:18:39;;;;;;;;;1.00;1.00;;;;;5.76;68.78;101706.38;4996225;28;46738;-61
2023/01/27 04:21:04;;;;;;;;;4.25;3.25;;;;;5.80;69.22;101698.75;4978237;28;45542;-61
2023/01/27 04:23:30;;;;;;;;;3.00;3.00;;;;;5.74;68.11;101688.47;4996293;28;45321;-61
2023/01/27 04:25:55;;;;;;;;;3.00;1.00;;;;;5.76;68.82;101691.91;4995935;28;45719;-60
2023/01/27 04:28:21;;;;;;;;;5.00;5.00;;;;;5.75;68.50;101693.78;5011072;28;46558;-61
2023/01/27 04:30:47;;;;;;;;;6.20;2.20;;;;;5.74;68.68;101694.78;4996577;28;45369;-61
2023/01/27 04:33:14;;;;;;;;;4.60;3.00;;;;;5.72;69.18;101693.22;4995948;28;45328;-61
2023/01/27 04:35:44;;;;;;;;;3.20;3.20;;;;;5.72;68.75;101679.59;4995716;28;45421;-61
2023/01/27 04:38:10;;;;;;;;;2.00;2.00;;;;;5.75;69.02;101685.59;4995553;28;45941;-61
2023/01/27 04:40:35;;;;;;;;;2.00;2.00;;;;;5.78;68.76;101687.16;4995754;28;45301;-61
2023/01/27 04:43:01;;;;;;;;;3.50;2.00;;;;;5.78;68.25;101681.69;4994145;28;45396;-61
2023/01/27 04:45:26;;;;;;;;;2.50;1.00;;;;;5.71;68.28;101673.28;4996074;28;45402;-61
2023/01/27 04:47:52;;;;;;;;;1.75;1.75;;;;;5.78;68.94;101685.28;4994077;28;48541;-61
2023/01/27 04:50:17;;;;;;;;;5.25;2.50;;;;;5.75;68.05;101669.25;4995742;28;45426;-61
2023/01/27 04:52:44;;;;;;;;;2.75;1.00;;;;;5.69;68.85;101659.84;4995857;28;45369;-61
2023/01/27 04:55:09;;;;;;;;;3.00;2.00;;;;;5.75;67.81;101665.66;4995714;28;45555;-62
2023/01/27 04:57:35;;;;;;;;;2.75;1.00;;;;;5.83;68.11;101673.91;4995578;28;46491;-61
2023/01/27 05:00:04;;;;;;;;;2.50;2.50;;;;;5.78;67.74;101670.81;5004073;28;45472;-62
2023/01/27 05:02:30;;;;;;;;;2.20;1.20;;;;;5.78;67.82;101673.53;5030784;28;45299;-61
2023/01/27 05:04:55;;;;;;;;;6.50;3.25;;;;;5.75;67.31;101679.28;5015872;28;45254;-61
2023/01/27 05:07:21;;;;;;;;;5.00;3.75;;;;;5.66;67.80;101662.03;5015081;28;46021;-61
2023/01/27 05:09:46;;;;;;;;;1.00;1.00;;;;;5.52;67.84;101631.63;5014229;28;45438;-63
2023/01/27 05:12:11;;;;;;;;;3.00;2.00;;;;;5.73;66.90;101673.13;5015508;28;45454;-61
2023/01/27 05:14:37;;;;;;;;;2.75;1.00;;;;;5.50;67.08;101639.06;5015677;28;45357;-61
2023/01/27 05:17:02;;;;;;;;;3.50;2.50;;;;;5.40;66.72;101621.97;5010288;28;46489;-61
2023/01/27 05:19:28;;;;;;;;;4.75;1.00;;;;;5.68;67.34;101665.44;4995381;28;45374;-62
2023/01/27 05:21:53;;;;;;;;;4.00;2.00;;;;;5.71;67.30;101667.84;4995988;28;45407;-61
2023/01/27 05:24:19;;;;;;;;;1.25;1.25;;;;;5.67;67.18;101655.56;4995412;28;45453;-61
2023/01/27 05:26:44;;;;;;;;;2.00;2.00;;;;;5.76;67.58;101668.22;4995249;28;45535;-62
2023/01/27 05:29:10;;;;;;;;;5.00;1.00;;;;;5.76;66.84;101665.50;4995166;28;45446;-62
2023/01/27 05:31:35;;;;;;;;;2.50;2.50;;;;;5.77;67.14;101672.66;4995176;28;45314;-61
2023/01/27 05:34:01;;;;;;;;;4.00;3.25;;;;;5.78;67.08;101668.09;4994497;28;45477;-61
2023/01/27 05:36:27;;;;;;;;;3.50;1.75;;;;;5.72;67.46;101664.13;4995003;28;46219;-61
2023/01/27 05:38:53;;;;;;;;;3.25;3.25;;;;;5.78;66.92;101670.81;4994028;28;45358;-61
2023/01/27 05:41:18;;;;;;;;;1.00;1.00;;;;;5.83;67.47;101677.47;4995293;28;45357;-61
2023/01/27 05:43:45;;;;;;;;;1.00;1.00;;;;;5.81;66.67;101671.34;4995431;28;45627;-61
2023/01/27 05:46:15;;;;;;;;;5.80;3.80;;;;;5.57;66.81;101629.25;4995031;28;47551;-61
2023/01/27 05:48:42;;;;;;;;;4.60;1.60;;;;;5.80;66.81;101671.50;4994827;28;45512;-62
2023/01/27 05:51:08;;;;;;;;;1.60;1.00;;;;;5.81;66.99;101675.94;5010611;28;45341;-61
2023/01/27 05:53:33;;;;;;;;;4.00;3.00;;;;;5.86;66.81;101675.47;4994741;28;45555;-61
2023/01/27 05:55:59;;;;;;;;;4.00;0.50;;;;;5.77;66.40;101664.50;4994919;28;46584;-61
2023/01/27 05:58:25;;;;;;;;;2.00;2.00;;;;;5.42;67.37;101606.31;4994992;28;45404;-63
2023/01/27 06:00:50;;;;;;;;;4.75;3.25;;;;;5.79;66.78;101665.22;5007698;28;45338;-61
2023/01/27 06:03:16;;;;;;;;;2.00;2.00;;;;;5.64;66.97;101651.28;5015120;28;45377;-61
2023/01/27 06:05:54;;;;;;;;;8.00;1.50;;;;;5.80;67.30;101672.38;5014451;28;46334;-61
2023/01/27 06:08:22;;;;;;;;;1.80;1.80;;;;;5.82;66.78;101672.22;5009978;28;45461;-61
2023/01/27 06:10:47;;;;;;;;;2.40;1.00;;;;;5.80;66.52;101672.38;5009919;28;45451;-62
2023/01/27 06:13:13;;;;;;;;;3.00;2.75;;;;;5.82;67.03;101674.94;5010384;28;45358;-62
2023/01/27 06:15:42;;;;;;;;;7.50;2.00;;;;;5.81;66.40;101678.66;4994655;28;46266;-60
2023/01/27 06:18:08;;;;;;;;;3.60;3.60;;;;;5.80;66.24;101674.22;5026573;28;45298;-60
2023/01/27 06:20:33;;;;;;;;;2.75;2.75;;;;;5.78;65.97;101674.41;5009929;28;45423;-59
2023/01/27 06:23:00;;;;;;;;;1.75;1.75;;;;;5.75;66.04;101676.56;5026822;28;45507;-61
2023/01/27 06:25:26;;;;;;;;;4.00;1.20;;;;;5.79;65.94;101681.56;5025877;28;45921;-61
2023/01/27 06:27:55;;;;;;;;;1.00;1.00;;;;;5.76;66.52;101678.28;4993969;28;45377;-61
2023/01/27 06:30:20;;;;;;;;;3.00;3.00;;;;;5.84;65.77;101673.75;5012602;28;45409;-61
2023/01/27 06:32:46;;;;;;;;;5.25;5.00;;;;;5.82;66.12;101686.66;4997940;28;45554;-61
2023/01/27 06:35:11;;;;;;;;;1.25;1.25;;;;;5.83;66.05;101685.66;4998157;28;46074;-61
2023/01/27 06:37:37;;;;;;;;;6.00;5.00;;;;;5.70;66.18;101663.41;4997731;28;45470;-61
2023/01/27 06:40:03;;;;;;;;;4.75;4.75;;;;;5.60;65.67;101654.47;4997770;28;45334;-62
2023/01/27 06:42:29;;;;;;;;;1.20;1.20;;;;;5.92;65.99;101697.47;5030222;28;45281;-61
2023/01/27 06:44:54;;;;;;;;;8.25;3.25;;;;;5.93;65.50;101695.63;5029096;28;45759;-63
2023/01/27 06:47:20;;;;;;;;;3.50;2.00;;;;;5.94;65.90;101700.06;4997662;28;45386;-62
2023/01/27 06:49:46;;;;;;;;;3.25;2.00;;;;;5.96;64.88;101692.56;5013104;28;45357;-62
2023/01/27 06:52:11;;;;;;;;;5.00;2.00;;;;;5.93;65.41;101691.00;4997981;28;45800;-62
2023/01/27 06:54:37;;;;;;;;;2.75;1.50;;;;;5.90;64.99;101701.38;4996394;28;46432;-64
2023/01/27 06:57:02;;;;;;;;;1.75;1.75;;;;;5.87;64.81;101690.81;4965251;28;45399;-62
2023/01/27 06:59:28;;;;;;;;;6.00;5.00;;;;;5.81;64.88;101690.41;5017811;28;45308;-62
2023/01/27 07:01:54;;;;;;;;;2.00;2.00;;;;;5.85;65.12;101707.31;5016133;28;45659;-60
2023/01/27 07:04:19;;;;;;;;;4.75;2.75;;;;;5.87;65.73;101701.72;5017630;28;45662;-60
2023/01/27 07:06:45;;;;;;;;;2.00;2.00;;;;;5.89;64.96;101703.25;5017478;28;45290;-61
2023/01/27 07:09:10;;;;;;;;;12.75;8.75;;;;;5.89;65.17;101702.41;5017618;28;45366;-61
2023/01/27 07:11:36;;;;;;;;;5.00;4.00;;;;;5.96;65.98;101700.75;5016421;28;45565;-62
2023/01/27 07:14:02;;;;;;;;;2.00;2.00;;;;;5.99;65.27;101705.91;5015778;28;45977;-61
2023/01/27 07:16:27;;;;;;;;;5.25;3.75;;;;;5.97;65.07;101706.06;5016103;28;45412;-60
2023/01/27 07:18:53;;;;;;;;;5.25;3.75;;;;;5.97;64.99;101702.47;5017355;28;45490;-61
2023/01/27 07:21:18;;;;;;;;;1.00;1.00;;;;;5.97;65.03;101707.91;5017429;28;45804;-62
2023/01/27 07:23:44;;;;;;;;;2.00;2.00;;;;;6.00;64.38;101714.91;5017258;28;45482;-61
2023/01/27 07:26:09;;;;;;;;;6.00;5.50;;;;;5.97;64.88;101721.53;5015219;28;46072;-61
2023/01/27 07:28:35;;;;;;;;;3.50;3.50;;;;;5.76;64.71;101675.56;4997089;28;45453;-61
2023/01/27 07:31:01;;;;;;;;;6.00;3.25;;;;;5.99;65.25;101718.66;4997286;28;45538;-61
2023/01/27 07:33:26;;;;;;;;;4.20;3.20;;;;;5.89;65.26;101705.13;4997087;28;45607;-61
2023/01/27 07:35:53;;;;;;;;;5.25;5.25;;;;;6.00;64.59;101729.41;4997429;28;45291;-60
2023/01/27 07:38:18;;;;;;;;;5.80;5.40;;;;;6.00;64.52;101715.78;4997242;28;45342;-60
2023/01/27 07:40:44;;;;;;;;;7.50;3.25;;;;;5.91;65.05;101712.13;4995931;28;45247;-60
2023/01/27 07:43:10;;;;;;;;;5.50;3.25;;;;;5.80;64.79;101691.44;5029017;28;46070;-60
2023/01/27 07:45:35;;;;;;;;;5.20;5.20;;;;;5.95;65.16;101715.41;4995631;28;45347;-60
2023/01/27 07:48:02;;;;;;;;;4.00;2.50;;;;;6.06;65.06;101734.25;4996742;28;45317;-60
2023/01/27 07:50:28;;;;;;;;;5.00;5.00;;;;;6.07;65.28;101733.25;5011939;28;45584;-59
2023/01/27 07:52:53;;;;;;;;;9.75;6.00;;;;;6.04;65.29;101722.63;4996635;28;45669;-61
2023/01/27 07:55:19;;;;;;;;;8.00;4.50;;;;;6.05;64.68;101735.28;5028447;28;45885;-60
2023/01/27 07:57:44;;;;;;;;;3.25;2.00;;;;;6.06;64.71;101733.41;4992817;28;45948;-60
2023/01/27 08:00:14;;;;;;;;;7.00;4.25;;;;;6.08;64.98;101734.09;5013309;28;45420;-61
2023/01/27 08:02:40;;;;;;;;;3.80;3.80;;;;;6.01;65.34;101736.56;5014041;28;46160;-62
2023/01/27 08:05:06;;;;;;;;;10.25;7.00;;;;;5.70;64.98;101688.78;5013721;28;45318;-62
2023/01/27 08:07:31;;;;;;;;;5.80;5.80;;;;;6.00;65.22;101745.75;5014842;28;45350;-61
2023/01/27 08:09:57;;;;;;;;;6.00;6.00;;;;;5.95;65.78;101740.78;5016622;28;45406;-62
2023/01/27 08:12:22;;;;;;;;;9.00;4.75;;;;;6.00;65.51;101748.50;5016032;28;46340;-62
2023/01/27 08:14:48;;;;;;;;;5.00;5.00;;;;;5.97;65.13;101740.59;5016213;28;45501;-62
2023/01/27 08:17:14;;;;;;;;;8.50;6.75;;;;;5.96;65.95;101758.84;5016129;28;45361;-62
2023/01/27 08:19:39;;;;;;;;;8.40;4.80;;;;;5.95;65.29;101745.38;5016455;28;45441;-62
2023/01/27 08:22:05;;;;;;;;;3.75;2.25;;;;;6.03;65.37;101755.53;5015936;28;45476;-62
2023/01/27 08:24:30;;;;;;;;;6.75;5.50;;;;;6.06;65.71;101756.06;5015972;28;45472;-62
2023/01/27 08:26:56;;;;;;;;;8.50;4.75;;;;;6.09;65.13;101757.63;5031573;28;45415;-62
2023/01/27 08:29:22;;;;;;;;;8.50;4.50;;;;;6.05;64.68;101754.38;5015936;28;45624;-62
2023/01/27 08:31:47;;;;;;;;;5.00;5.00;;;;;6.01;64.54;101750.19;5047921;28;47737;-62
2023/01/27 08:34:13;;;;;;;;;5.00;5.00;;;;;5.96;64.15;101756.13;5015686;28;45330;-61
2023/01/27 08:36:41;;;;;;;;;5.60;5.60;;;;;5.98;64.77;101761.44;5015951;28;45369;-61
2023/01/27 08:39:07;;;;;;;;;6.60;6.40;;;;;5.98;63.67;101758.69;5016003;28;45651;-61
2023/01/27 08:41:33;;;;;;;;;8.20;6.80;;;;;6.04;64.74;101785.34;4977431;28;47391;-62
2023/01/27 08:43:58;;;;;;;;;8.75;4.50;;;;;6.04;64.15;101768.97;4994978;28;45451;-61
2023/01/27 08:46:24;;;;;;;;;8.25;6.00;;;;;6.05;64.43;101758.94;4995789;28;45415;-62
2023/01/27 08:48:50;;;;;;;;;7.25;6.00;;;;;5.96;64.41;101752.53;4996327;28;45343;-61
2023/01/27 08:51:16;;;;;;;;;10.40;6.40;;;;;5.81;63.81;101733.13;4995998;28;46138;-62
2023/01/27 08:53:41;;;;;;;;;8.75;6.25;;;;;6.02;64.64;101764.69;4995034;28;45487;-61
2023/01/27 08:56:12;;;;;;;;;10.50;5.50;;;;;6.06;63.97;101766.09;4996224;28;45480;-62
2023/01/27 08:58:37;;;;;;;;;9.40;6.00;;;;;6.10;64.37;101765.63;4995246;28;45407;-62
2023/01/27 09:01:04;;;;;;;;;17.00;10.25;;;;;6.13;63.54;101775.38;4999408;28;45401;-62
2023/01/27 09:03:30;;;;;;;;;6.00;5.80;;;;;6.01;63.51;101758.38;5047688;28;45382;-62
2023/01/27 09:05:55;;;;;;;;;11.00;10.50;;;;;6.01;63.56;101774.72;5047286;28;45401;-63
2023/01/27 09:08:21;;;;;;;;;8.00;5.75;;;;;5.97;63.65;101784.22;5047373;28;45697;-62
2023/01/27 09:10:46;;;;;;;;;6.00;4.00;;;;;5.91;64.15;101780.25;5015495;28;45801;-61
2023/01/27 09:13:12;;;;;;;;;9.25;8.25;;;;;5.96;64.50;101791.56;5015725;28;45460;-62
2023/01/27 09:15:37;;;;;;;;;6.75;6.75;;;;;5.76;63.94;101755.41;5015835;28;45399;-62
2023/01/27 09:18:04;;;;;;;;;16.50;7.50;;;;;5.94;64.32;101790.81;5047592;28;45643;-63
2023/01/27 09:20:30;;;;;;;;;6.80;6.00;;;;;5.90;64.60;101785.84;4998412;28;46698;-64
2023/01/27 09:22:55;;;;;;;;;9.60;7.40;;;;;5.80;65.03;101784.06;4995583;28;45685;-63
2023/01/27 09:25:21;;;;;;;;;7.50;7.00;;;;;5.81;64.93;101793.09;4994568;28;45244;-63
2023/01/27 09:27:46;;;;;;;;;5.50;5.00;;;;;5.87;65.11;101789.75;4994343;28;45281;-62
2023/01/27 09:30:13;;;;;;;;;14.00;10.00;;;;;5.83;64.21;101786.47;4995306;28;45358;-63
2023/01/27 09:32:39;;;;;;;;;12.20;8.60;;;;;5.92;64.35;101794.75;4994432;28;45577;-63
2023/01/27 09:35:05;;;;;;;;;10.00;9.00;;;;;5.82;63.26;101789.38;4995609;28;45405;-62
2023/01/27 09:37:32;;;;;;;;;12.80;9.40;;;;;5.69;63.14;101782.44;4986017;28;45616;-62
2023/01/27 09:40:00;;;;;;;;;8.20;6.00;;;;;5.57;63.50;101776.31;4983795;28;45701;-62
2023/01/27 09:42:40;;;;;;;;;4.80;4.80;;;;;5.75;63.50;101801.88;4995369;28;45385;-62
2023/01/27 09:45:18;;;;;;;;;9.60;9.00;;;;;5.51;62.95;101765.19;4995371;28;45354;-62
2023/01/27 09:47:52;;;;;;;;;9.20;7.40;;;;;5.75;62.37;101815.50;4994095;28;45445;-63
2023/01/27 09:50:44;;;;;;;;;11.20;7.20;;;;;5.73;62.32;101812.06;5010227;28;48204;-63
2023/01/27 09:53:33;;;;;;;;;10.60;10.60;;;;;5.66;62.89;101815.41;4994741;28;45541;-61
2023/01/27 09:55:58;;;;;;;;;7.80;7.80;;;;;5.63;62.48;101806.69;4993972;28;45383;-62
2023/01/27 09:58:54;;;;;;;;;9.25;8.50;;;;;5.62;63.33;101810.44;4995335;28;45615;-62
2023/01/27 10:01:47;;;;;;;;;8.20;8.20;;;;;5.61;62.87;101803.28;4996206;28;45676;-62
2023/01/27 10:04:37;;;;;;;;;11.80;7.40;;;;;5.72;62.76;101818.53;5043791;28;45276;-61
2023/01/27 10:07:08;;;;;;;;;7.40;5.60;;;;;5.47;61.94;101774.69;5017990;28;45450;-61
2023/01/27 10:09:37;;;;;;;;;8.60;6.20;;;;;5.51;62.57;101779.66;5018619;28;45507;-61
2023/01/27 10:12:28;;;;;;;;;10.80;8.80;;;;;5.70;63.18;101815.97;5017965;28;46087;-63
2023/01/27 10:15:32;;;;;;;;;13.60;9.60;;;;;5.70;62.37;101808.66;5046178;28;45369;-60
2023/01/27 10:17:58;;;;;;;;;9.00;9.00;;;;;5.77;62.07;101808.88;4952865;28;45678;-62
2023/01/27 10:20:33;;;;;;;;;9.00;6.75;;;;;5.79;62.30;101811.47;4975367;28;46477;-63
2023/01/27 10:23:11;;;;;;;;;12.20;9.20;;;;;5.66;61.54;101798.22;5028533;28;45990;-62
2023/01/27 10:25:51;;;;;;;;;4.60;4.60;;;;;5.68;62.31;101810.69;5034397;28;45337;-61
2023/01/27 10:28:21;;;;;;;;;8.00;6.00;;;;;5.72;61.53;101824.84;5034832;28;45404;-61
2023/01/27 10:31:20;;;;;;;;;9.60;8.80;;;;;5.65;61.57;101823.75;5032057;28;45306;-61
2023/01/27 10:33:53;;;;;;;;;6.00;5.20;;;;;5.73;62.49;101829.28;5029647;28;45827;-63
2023/01/27 10:36:29;;;;;;;;;9.20;7.20;;;;;5.71;61.90;101812.22;5032985;28;45729;-61
2023/01/27 10:39:22;;;;;;;;;9.00;6.40;;;;;5.72;61.90;101813.97;5034674;28;45499;-63
2023/01/27 10:41:54;;;;;;;;;8.00;8.00;;;;;5.77;62.39;101819.78;5019501;28;45796;-62
2023/01/27 10:44:31;;;;;;;;;9.00;6.00;;;;;5.81;62.32;101817.59;5035645;28;46190;-63
2023/01/27 10:47:06;;;;;;;;;6.60;5.00;;;;;5.64;61.44;101798.38;5036014;28;45472;-62
2023/01/27 10:49:38;;;;;;;;;12.80;9.20;;;;;5.71;61.90;101812.22;5033606;28;45952;-62
2023/01/27 10:52:11;;;;;;;;;8.20;8.20;;;;;5.52;61.92;101795.00;5067506;28;45353;-63
2023/01/27 10:54:40;;;;;;;;;8.80;8.80;;;;;5.80;61.50;101824.94;5067699;28;45427;-62
2023/01/27 10:57:11;;;;;;;;;12.60;9.60;;;;;5.80;61.77;101822.22;5051044;28;45435;-61
2023/01/27 10:59:59;;;;;;;;;9.00;9.00;;;;;5.62;61.89;101799.53;5068263;28;45490;-61
2023/01/27 11:02:35;;;;;;;;;11.80;7.40;;;;;5.78;62.16;101812.47;5013237;28;45692;-60
2023/01/27 11:05:06;;;;;;;;;10.60;8.40;;;;;5.82;62.36;101822.91;5034848;28;45350;-60
2023/01/27 11:07:32;;;;;;;;;17.60;10.00;;;;;5.74;62.27;101820.09;5033890;28;45754;-60
2023/01/27 11:09:59;;;;;;;;;9.25;8.25;;;;;5.80;62.27;101824.06;5051202;28;45732;-60
2023/01/27 11:12:31;;;;;;;;;10.40;9.40;;;;;5.85;62.37;101827.19;5050398;28;45547;-60
2023/01/27 11:14:57;;;;;;;;;11.60;10.40;;;;;5.75;61.90;101821.81;5033847;28;45482;-61
2023/01/27 11:17:29;;;;;;;;;9.75;8.00;;;;;5.65;61.74;101816.41;5034260;28;45496;-61
2023/01/27 11:20:25;;;;;;;;;9.00;7.60;;;;;5.76;62.30;101822.69;5050865;28;45414;-61
2023/01/27 11:23:04;;;;;;;;;7.40;7.40;;;;;5.29;61.86;101732.78;5035421;28;45639;-60
2023/01/27 11:25:52;;;;;;;;;11.60;10.00;;;;;5.83;62.03;101812.88;5034102;28;45460;-60
2023/01/27 11:28:40;;;;;;;;;10.20;9.00;;;;;5.89;62.18;101814.13;5035343;28;45445;-61
2023/01/27 11:31:24;;;;;;;;;11.20;10.00;;;;;5.75;61.59;101808.19;5050734;28;45791;-61
2023/01/27 11:33:56;;;;;;;;;8.20;7.80;;;;;5.64;61.83;101806.53;5035388;28;45520;-61
2023/01/27 11:36:23;;;;;;;;;13.20;10.80;;;;;5.43;62.60;101757.78;5033556;28;45481;-62
2023/01/27 11:38:48;;;;;;;;;9.00;8.40;;;;;5.78;62.40;101799.72;5012691;28;45442;-61
2023/01/27 11:41:14;;;;;;;;;9.00;9.00;;;;;5.48;61.82;101760.03;5000784;28;45609;-60
2023/01/27 11:43:39;;;;;;;;;8.50;6.00;;;;;5.75;62.50;101805.47;5009812;28;46074;-59
2023/01/27 11:46:09;;;;;;;;;11.75;9.00;;;;;5.73;62.54;101791.16;5013343;28;47197;-61
2023/01/27 11:48:40;;;;;;;;;10.40;9.40;;;;;5.72;61.94;101780.41;5015535;28;45316;-61
2023/01/27 11:51:19;;;;;;;;;9.60;9.60;;;;;5.74;62.67;101779.22;5013480;28;45507;-61
2023/01/27 11:53:45;;;;;;;;;12.40;7.80;;;;;5.78;63.22;101794.28;5015385;28;45664;-62
2023/01/27 11:56:15;;;;;;;;;10.00;9.75;;;;;5.79;62.33;101789.66;5030296;28;47275;-62
2023/01/27 11:58:46;;;;;;;;;11.00;9.40;;;;;5.56;62.38;101752.81;5030347;28;45459;-61
2023/01/27 12:01:14;;;;;;;;;12.00;10.40;;;;;5.76;62.94;101784.53;5029573;28;45487;-61
2023/01/27 12:04:01;;;;;;;;;8.40;7.80;;;;;5.88;62.47;101796.06;5012829;28;45633;-61
2023/01/27 12:06:29;;;;;;;;;9.60;9.60;;;;;5.79;62.54;101785.09;5030993;28;45454;-60
2023/01/27 12:08:55;;;;;;;;;16.20;13.60;;;;;5.76;61.95;101790.00;5015792;28;45847;-60
2023/01/27 12:11:28;;;;;;;;;14.00;10.25;;;;;5.78;62.13;101788.81;5008386;28;45533;-65
2023/01/27 12:13:56;;;;;;;;;10.00;9.80;;;;;5.55;62.97;101742.94;5005932;28;45625;-66
2023/01/27 12:16:32;;;;;;;;;14.80;14.80;;;;;5.76;62.56;101782.66;5025004;28;45540;-61